Terminal Aerodrome Forecast
Issued by NWS

Home | Current Version | Previous Version | Text Only | Print | Product List | Glossary On
Versions: 1 2 3 4 5 6 7 8 9 10 11 12 13 14 15 16 17 18 19 20
000
FTUS45 KREV 211740
TAFMMH
TAF
KMMH 211740Z 2118/2218 VRB06KT 3SM -SHSN FEW018 OVC030
     FM212000 24009G20KT 1 1/2SM -SHSN FEW007 BKN015
     FM220300 25017G30KT 3SM -SHSN BR SCT010 BKN022
     FM220600 25014G25KT 6SM -SHSN SCT025 BKN035=

USA.gov is the U.S. government's official web portal to all federal, state and local government web resources and services.